sensor_id;sensor_type;location;lat;lon;timestamp;pressure;altitude;pressure_sealevel;temperature;humidity
54856;BME280;40748;53.168;5.800;2022-10-31T00:01:00;101995.67;;;13.27;86.93
54856;BME280;40748;53.168;5.800;2022-10-31T00:03:30;101997.34;;;13.26;87.17
54856;BME280;40748;53.168;5.800;2022-10-31T00:06:00;101998.75;;;13.19;87.46
54856;BME280;40748;53.168;5.800;2022-10-31T00:08:30;101998.56;;;13.18;87.26
54856;BME280;40748;53.168;5.800;2022-10-31T00:11:00;101999.92;;;13.14;87.52
54856;BME280;40748;53.168;5.800;2022-10-31T00:13:30;101997.31;;;13.15;87.55
54856;BME280;40748;53.168;5.800;2022-10-31T00:16:00;101995.09000000001;;;13.10;87.52
54856;BME280;40748;53.168;5.800;2022-10-31T00:21:00;102004.1;;;13.05;87.42
54856;BME280;40748;53.168;5.800;2022-10-31T00:23:30;102001.09;;;13.01;87.64
54856;BME280;40748;53.168;5.800;2022-10-31T00:26:00;102000.97;;;12.99;87.91
54856;BME280;40748;53.168;5.800;2022-10-31T00:28:30;102001.97;;;13.01;88.23
54856;BME280;40748;53.168;5.800;2022-10-31T00:31:00;101999.73;;;12.99;88.19
54856;BME280;40748;53.168;5.800;2022-10-31T00:33:30;102000.58;;;13.00;88.31
54856;BME280;40748;53.168;5.800;2022-10-31T00:38:30;102003.27;;;13.01;88.32
54856;BME280;40748;53.168;5.800;2022-10-31T00:46:00;102006.1;;;12.99;88.29
54856;BME280;40748;53.168;5.800;2022-10-31T00:48:30;102004.36;;;12.97;88.29
54856;BME280;40748;53.168;5.800;2022-10-31T00:51:00;102003.47;;;12.95;88.60
54856;BME280;40748;53.168;5.800;2022-10-31T00:53:30;102007.08;;;12.93;88.61
54856;BME280;40748;53.168;5.800;2022-10-31T00:56:00;102011.41;;;12.92;88.93
54856;BME280;40748;53.168;5.800;2022-10-31T00:58:30;102013.79;;;12.93;88.91
54856;BME280;40748;53.168;5.800;2022-10-31T01:01:00;102015.19;;;12.90;89.10
54856;BME280;40748;53.168;5.800;2022-10-31T01:03:30;102017.48999999999;;;12.88;88.94
54856;BME280;40748;53.168;5.800;2022-10-31T01:06:00;102020.58;;;12.86;89.45
54856;BME280;40748;53.168;5.800;2022-10-31T01:08:30;102019.25;;;12.87;89.40
54856;BME280;40748;53.168;5.800;2022-10-31T01:11:01;102023.83;;;12.85;89.50
54856;BME280;40748;53.168;5.800;2022-10-31T01:13:30;102022.26000000001;;;12.82;89.77
54856;BME280;40748;53.168;5.800;2022-10-31T01:16:00;102026.81;;;12.81;89.70
54856;BME280;40748;53.168;5.800;2022-10-31T01:18:30;102029.21;;;12.82;89.82
54856;BME280;40748;53.168;5.800;2022-10-31T01:21:00;102031.28;;;12.80;89.68
54856;BME280;40748;53.168;5.800;2022-10-31T01:23:30;102032.17;;;12.78;89.81
54856;BME280;40748;53.168;5.800;2022-10-31T01:31:00;102033.37;;;12.75;89.85
54856;BME280;40748;53.168;5.800;2022-10-31T01:33:30;102029.19;;;12.72;89.78
54856;BME280;40748;53.168;5.800;2022-10-31T01:36:00;102035.46;;;12.67;89.87
54856;BME280;40748;53.168;5.800;2022-10-31T01:38:30;102031.76;;;12.68;90.18
54856;BME280;40748;53.168;5.800;2022-10-31T01:41:00;102031.06;;;12.71;90.18
54856;BME280;40748;53.168;5.800;2022-10-31T01:46:00;102032.54;;;12.70;89.90
54856;BME280;40748;53.168;5.800;2022-10-31T01:48:30;102030.14;;;12.67;89.80
54856;BME280;40748;53.168;5.800;2022-10-31T01:51:00;102030.88;;;12.66;89.93
54856;BME280;40748;53.168;5.800;2022-10-31T01:53:30;102026.61;;;12.64;89.75
54856;BME280;40748;53.168;5.800;2022-10-31T01:56:00;102027.81;;;12.62;89.64
54856;BME280;40748;53.168;5.800;2022-10-31T01:58:30;102028.5;;;12.59;89.49
54856;BME280;40748;53.168;5.800;2022-10-31T02:03:30;102031.24;;;12.56;89.29
54856;BME280;40748;53.168;5.800;2022-10-31T02:06:00;102032.79;;;12.52;89.30
54856;BME280;40748;53.168;5.800;2022-10-31T02:08:30;102031.06;;;12.50;89.27
54856;BME280;40748;53.168;5.800;2022-10-31T02:11:00;102036.36;;;12.49;89.23
54856;BME280;40748;53.168;5.800;2022-10-31T02:13:30;102036.6;;;12.47;89.28
54856;BME280;40748;53.168;5.800;2022-10-31T02:16:00;102031.41;;;12.44;89.30
54856;BME280;40748;53.168;5.800;2022-10-31T02:18:30;102031.62;;;12.42;89.31
54856;BME280;40748;53.168;5.800;2022-10-31T02:21:02;102030.05;;;12.40;89.42
54856;BME280;40748;53.168;5.800;2022-10-31T02:23:35;102032.65;;;12.37;89.39
54856;BME280;40748;53.168;5.800;2022-10-31T02:26:05;102030.62999999999;;;12.35;89.47
54856;BME280;40748;53.168;5.800;2022-10-31T02:28:34;102036.22;;;12.32;89.39
54856;BME280;40748;53.168;5.800;2022-10-31T02:31:01;102034.16;;;12.29;89.37
54856;BME280;40748;53.168;5.800;2022-10-31T02:33:30;102033.58;;;12.27;89.58
54856;BME280;40748;53.168;5.800;2022-10-31T02:36:02;102025.64;;;12.23;89.57
54856;BME280;40748;53.168;5.800;2022-10-31T02:38:34;102022.6;;;12.22;89.54
54856;BME280;40748;53.168;5.800;2022-10-31T02:41:01;102021.29;;;12.20;89.62
54856;BME280;40748;53.168;5.800;2022-10-31T02:46:01;102020.4;;;12.15;89.83
54856;BME280;40748;53.168;5.800;2022-10-31T02:48:30;102021.36;;;12.13;89.73
54856;BME280;40748;53.168;5.800;2022-10-31T02:53:31;102021.0;;;12.12;89.94
54856;BME280;40748;53.168;5.800;2022-10-31T02:56:01;102016.90999999999;;;12.11;89.82
54856;BME280;40748;53.168;5.800;2022-10-31T02:58:30;102012.86;;;12.08;89.72
54856;BME280;40748;53.168;5.800;2022-10-31T03:01:05;102007.56;;;12.06;89.67
54856;BME280;40748;53.168;5.800;2022-10-31T03:03:30;102007.61;;;12.04;89.88
54856;BME280;40748;53.168;5.800;2022-10-31T03:06:00;102009.39;;;12.03;89.90
54856;BME280;40748;53.168;5.800;2022-10-31T03:08:31;102004.49;;;12.02;89.94
54856;BME280;40748;53.168;5.800;2022-10-31T03:13:32;102009.86;;;12.01;89.96
54856;BME280;40748;53.168;5.800;2022-10-31T03:16:02;102010.03;;;11.99;89.92
54856;BME280;40748;53.168;5.800;2022-10-31T03:18:31;102012.83;;;11.97;89.82
54856;BME280;40748;53.168;5.800;2022-10-31T03:21:01;102014.11;;;11.94;89.76
54856;BME280;40748;53.168;5.800;2022-10-31T03:23:30;102016.72;;;11.91;90.05
54856;BME280;40748;53.168;5.800;2022-10-31T03:26:00;102013.22;;;11.88;90.16
54856;BME280;40748;53.168;5.800;2022-10-31T03:28:30;102015.5;;;11.87;90.28
54856;BME280;40748;53.168;5.800;2022-10-31T03:33:31;102012.87999999999;;;11.86;90.07
54856;BME280;40748;53.168;5.800;2022-10-31T03:36:00;102014.48000000001;;;11.84;90.09
54856;BME280;40748;53.168;5.800;2022-10-31T03:38:30;102018.19;;;11.81;90.12
54856;BME280;40748;53.168;5.800;2022-10-31T03:41:00;102017.07;;;11.79;90.20
54856;BME280;40748;53.168;5.800;2022-10-31T03:43:31;102018.11;;;11.77;90.36
54856;BME280;40748;53.168;5.800;2022-10-31T03:46:00;102019.26;;;11.75;90.31
54856;BME280;40748;53.168;5.800;2022-10-31T03:48:30;102019.05;;;11.74;90.26
54856;BME280;40748;53.168;5.800;2022-10-31T03:51:01;102024.54000000001;;;11.73;90.33
54856;BME280;40748;53.168;5.800;2022-10-31T03:53:30;102024.13;;;11.71;90.31
54856;BME280;40748;53.168;5.800;2022-10-31T03:56:01;102024.27;;;11.69;90.26
54856;BME280;40748;53.168;5.800;2022-10-31T03:58:32;102030.14;;;11.68;90.26
54856;BME280;40748;53.168;5.800;2022-10-31T04:01:00;102030.72;;;11.66;90.39
54856;BME280;40748;53.168;5.800;2022-10-31T04:06:01;102037.59999999999;;;11.63;90.42
54856;BME280;40748;53.168;5.800;2022-10-31T04:08:30;102037.59999999999;;;11.61;90.45
54856;BME280;40748;53.168;5.800;2022-10-31T04:11:00;102038.55;;;11.60;90.58
54856;BME280;40748;53.168;5.800;2022-10-31T04:13:31;102041.72;;;11.59;90.46
54856;BME280;40748;53.168;5.800;2022-10-31T04:16:00;102039.59;;;11.57;90.44
54856;BME280;40748;53.168;5.800;2022-10-31T04:18:30;102036.72;;;11.55;90.38
54856;BME280;40748;53.168;5.800;2022-10-31T04:21:00;102030.64;;;11.54;90.38
54856;BME280;40748;53.168;5.800;2022-10-31T04:23:30;102032.28;;;11.52;90.34
54856;BME280;40748;53.168;5.800;2022-10-31T04:26:00;102038.56;;;11.48;90.25
54856;BME280;40748;53.168;5.800;2022-10-31T04:28:30;102040.47;;;11.46;90.24
54856;BME280;40748;53.168;5.800;2022-10-31T04:31:00;102041.66;;;11.39;90.09
54856;BME280;40748;53.168;5.800;2022-10-31T04:33:30;102037.69;;;11.37;89.85
54856;BME280;40748;53.168;5.800;2022-10-31T04:36:00;102035.49;;;11.33;89.69
54856;BME280;40748;53.168;5.800;2022-10-31T04:38:30;102036.49;;;11.28;89.45
54856;BME280;40748;53.168;5.800;2022-10-31T04:41:00;102039.47;;;11.22;89.33
54856;BME280;40748;53.168;5.800;2022-10-31T04:43:30;102036.46;;;11.17;89.16
54856;BME280;40748;53.168;5.800;2022-10-31T04:46:00;102039.75;;;11.09;89.07
54856;BME280;40748;53.168;5.800;2022-10-31T04:48:30;102035.33;;;11.04;88.93
54856;BME280;40748;53.168;5.800;2022-10-31T04:51:00;102038.73;;;10.99;88.85
54856;BME280;40748;53.168;5.800;2022-10-31T04:53:30;102035.97;;;10.94;88.87
54856;BME280;40748;53.168;5.800;2022-10-31T04:56:00;102031.81;;;10.90;88.90
54856;BME280;40748;53.168;5.800;2022-10-31T04:58:30;102036.13;;;10.86;88.95
54856;BME280;40748;53.168;5.800;2022-10-31T05:01:00;102034.17;;;10.83;89.05
54856;BME280;40748;53.168;5.800;2022-10-31T05:03:30;102032.79;;;10.81;89.23
54856;BME280;40748;53.168;5.800;2022-10-31T05:06:00;102035.20999999999;;;10.79;89.18
54856;BME280;40748;53.168;5.800;2022-10-31T05:08:30;102037.83;;;10.76;89.13
54856;BME280;40748;53.168;5.800;2022-10-31T05:11:00;102032.81;;;10.75;89.12
54856;BME280;40748;53.168;5.800;2022-10-31T05:13:30;102028.52;;;10.72;89.01
54856;BME280;40748;53.168;5.800;2022-10-31T05:16:00;102031.14;;;10.69;89.02
54856;BME280;40748;53.168;5.800;2022-10-31T05:18:30;102030.58;;;10.66;88.94
54856;BME280;40748;53.168;5.800;2022-10-31T05:21:00;102028.66;;;10.63;88.88
54856;BME280;40748;53.168;5.800;2022-10-31T05:23:30;102034.31;;;10.59;88.86
54856;BME280;40748;53.168;5.800;2022-10-31T05:26:00;102032.39;;;10.56;88.99
54856;BME280;40748;53.168;5.800;2022-10-31T05:28:30;102033.01;;;10.54;88.95
54856;BME280;40748;53.168;5.800;2022-10-31T05:31:00;102030.89;;;10.53;89.06
54856;BME280;40748;53.168;5.800;2022-10-31T05:33:30;102034.33;;;10.51;88.94
54856;BME280;40748;53.168;5.800;2022-10-31T05:36:00;102032.24;;;10.48;88.90
54856;BME280;40748;53.168;5.800;2022-10-31T05:38:30;102037.11;;;10.45;88.81
54856;BME280;40748;53.168;5.800;2022-10-31T05:41:00;102034.17;;;10.43;88.91
54856;BME280;40748;53.168;5.800;2022-10-31T05:43:30;102039.86;;;10.40;88.92
54856;BME280;40748;53.168;5.800;2022-10-31T05:46:00;102036.51;;;10.39;89.12
54856;BME280;40748;53.168;5.800;2022-10-31T05:51:00;102026.70000000001;;;10.41;89.45
54856;BME280;40748;53.168;5.800;2022-10-31T05:58:30;102017.78;;;10.40;89.39
54856;BME280;40748;53.168;5.800;2022-10-31T06:03:30;102021.91;;;10.38;89.41
54856;BME280;40748;53.168;5.800;2022-10-31T06:06:00;102025.8;;;10.36;89.39
54856;BME280;40748;53.168;5.800;2022-10-31T06:08:30;102024.86;;;10.35;89.35
54856;BME280;40748;53.168;5.800;2022-10-31T06:11:00;102025.8;;;10.34;89.37
54856;BME280;40748;53.168;5.800;2022-10-31T06:13:30;102026.9;;;10.31;89.32
54856;BME280;40748;53.168;5.800;2022-10-31T06:16:00;102025.23;;;10.29;89.33
54856;BME280;40748;53.168;5.800;2022-10-31T06:18:30;102018.0;;;10.26;89.20
54856;BME280;40748;53.168;5.800;2022-10-31T06:21:00;102018.58;;;10.25;89.19
54856;BME280;40748;53.168;5.800;2022-10-31T06:23:30;102013.87;;;10.22;89.14
54856;BME280;40748;53.168;5.800;2022-10-31T06:26:00;102008.69;;;10.20;89.32
54856;BME280;40748;53.168;5.800;2022-10-31T06:31:00;102008.94;;;10.18;89.29
54856;BME280;40748;53.168;5.800;2022-10-31T06:36:00;102006.48;;;10.15;89.60
54856;BME280;40748;53.168;5.800;2022-10-31T06:38:30;102003.91;;;10.14;89.57
54856;BME280;40748;53.168;5.800;2022-10-31T06:41:01;102004.85;;;10.16;89.67
54856;BME280;40748;53.168;5.800;2022-10-31T06:46:01;102012.95;;;10.14;89.53
54856;BME280;40748;53.168;5.800;2022-10-31T06:56:00;102014.62;;;10.13;89.67
54856;BME280;40748;53.168;5.800;2022-10-31T06:58:30;102010.65999999999;;;10.10;89.66
54856;BME280;40748;53.168;5.800;2022-10-31T07:01:00;102009.27;;;10.13;89.47
54856;BME280;40748;53.168;5.800;2022-10-31T07:03:30;102009.27;;;10.14;89.47
54856;BME280;40748;53.168;5.800;2022-10-31T07:06:00;102016.63;;;10.16;89.42
54856;BME280;40748;53.168;5.800;2022-10-31T07:08:30;102013.81;;;10.17;89.39
54856;BME280;40748;53.168;5.800;2022-10-31T07:11:00;102017.03;;;10.18;89.53
54856;BME280;40748;53.168;5.800;2022-10-31T07:13:30;102022.55;;;10.20;89.58
54856;BME280;40748;53.168;5.800;2022-10-31T07:16:01;102027.86;;;10.21;89.62
54856;BME280;40748;53.168;5.800;2022-10-31T07:18:30;102026.19;;;10.24;89.60
54856;BME280;40748;53.168;5.800;2022-10-31T07:21:00;102027.12;;;10.28;89.60
54856;BME280;40748;53.168;5.800;2022-10-31T07:23:30;102033.09000000001;;;10.31;89.80
54856;BME280;40748;53.168;5.800;2022-10-31T07:26:00;102038.23;;;10.32;89.65
54856;BME280;40748;53.168;5.800;2022-10-31T07:28:30;102037.66;;;10.37;89.71
54856;BME280;40748;53.168;5.800;2022-10-31T07:31:00;102045.34;;;10.41;89.68
54856;BME280;40748;53.168;5.800;2022-10-31T07:33:30;102047.47;;;10.45;89.49
54856;BME280;40748;53.168;5.800;2022-10-31T07:36:00;102043.29000000001;;;10.48;89.55
54856;BME280;40748;53.168;5.800;2022-10-31T07:38:30;102042.76;;;10.53;89.59
54856;BME280;40748;53.168;5.800;2022-10-31T07:41:00;102051.75;;;10.56;89.59
54856;BME280;40748;53.168;5.800;2022-10-31T07:43:30;102051.39;;;10.62;89.64
54856;BME280;40748;53.168;5.800;2022-10-31T07:46:00;102053.5;;;10.65;89.61
54856;BME280;40748;53.168;5.800;2022-10-31T07:48:30;102058.03;;;10.68;89.64
54856;BME280;40748;53.168;5.800;2022-10-31T07:51:00;102058.03;;;10.75;89.83
54856;BME280;40748;53.168;5.800;2022-10-31T07:53:30;102057.93;;;10.82;89.86
54856;BME280;40748;53.168;5.800;2022-10-31T07:56:00;102053.38;;;10.86;89.96
54856;BME280;40748;53.168;5.800;2022-10-31T07:58:30;102054.52;;;10.98;90.26
54856;BME280;40748;53.168;5.800;2022-10-31T08:01:00;102058.95000000001;;;11.08;90.76
54856;BME280;40748;53.168;5.800;2022-10-31T08:03:30;102058.95000000001;;;11.22;90.76
54856;BME280;40748;53.168;5.800;2022-10-31T08:06:00;102059.51;;;11.46;90.97
54856;BME280;40748;53.168;5.800;2022-10-31T08:08:30;102061.13;;;11.77;91.62
54856;BME280;40748;53.168;5.800;2022-10-31T08:11:00;102058.44;;;12.03;92.09
54856;BME280;40748;53.168;5.800;2022-10-31T08:13:30;102058.44;;;12.23;91.86
54856;BME280;40748;53.168;5.800;2022-10-31T08:16:00;102055.53;;;12.38;91.71
54856;BME280;40748;53.168;5.800;2022-10-31T08:18:30;102055.81;;;12.46;91.09
54856;BME280;40748;53.168;5.800;2022-10-31T08:21:00;102056.44;;;12.48;90.28
54856;BME280;40748;53.168;5.800;2022-10-31T08:26:00;102063.97;;;12.46;89.72
54856;BME280;40748;53.168;5.800;2022-10-31T08:28:30;102069.51000000001;;;12.45;89.65
54856;BME280;40748;53.168;5.800;2022-10-31T08:31:00;102066.28;;;12.47;89.44
54856;BME280;40748;53.168;5.800;2022-10-31T08:33:30;102069.97;;;12.44;89.15
54856;BME280;40748;53.168;5.800;2022-10-31T08:36:00;102067.44;;;12.47;89.62
54856;BME280;40748;53.168;5.800;2022-10-31T08:38:30;102063.81;;;12.49;89.27
54856;BME280;40748;53.168;5.800;2022-10-31T08:41:00;102066.25;;;12.52;89.32
54856;BME280;40748;53.168;5.800;2022-10-31T08:43:30;102071.19;;;12.55;89.16
54856;BME280;40748;53.168;5.800;2022-10-31T08:46:00;102068.82;;;12.58;89.13
54856;BME280;40748;53.168;5.800;2022-10-31T08:48:30;102070.34999999999;;;12.62;89.19
54856;BME280;40748;53.168;5.800;2022-10-31T08:51:00;102067.69;;;12.65;89.30
54856;BME280;40748;53.168;5.800;2022-10-31T08:53:30;102066.42;;;12.68;89.50
54856;BME280;40748;53.168;5.800;2022-10-31T08:56:00;102068.2;;;12.74;89.64
54856;BME280;40748;53.168;5.800;2022-10-31T08:58:30;102068.11;;;12.79;89.52
54856;BME280;40748;53.168;5.800;2022-10-31T09:01:00;102063.05;;;12.83;89.61
54856;BME280;40748;53.168;5.800;2022-10-31T09:03:30;102058.91;;;12.87;89.89
54856;BME280;40748;53.168;5.800;2022-10-31T09:06:00;102055.2;;;12.92;90.09
54856;BME280;40748;53.168;5.800;2022-10-31T09:08:30;102053.7;;;12.98;90.26
54856;BME280;40748;53.168;5.800;2022-10-31T09:11:00;102048.92;;;13.02;90.41
54856;BME280;40748;53.168;5.800;2022-10-31T09:13:30;102045.84;;;13.08;90.85
54856;BME280;40748;53.168;5.800;2022-10-31T09:16:00;102044.04;;;13.14;91.03
54856;BME280;40748;53.168;5.800;2022-10-31T09:18:30;102043.44;;;13.20;91.19
54856;BME280;40748;53.168;5.800;2022-10-31T09:21:00;102039.89;;;13.27;91.52
54856;BME280;40748;53.168;5.800;2022-10-31T09:23:30;102039.89;;;13.32;91.52
54856;BME280;40748;53.168;5.800;2022-10-31T09:26:00;102042.33;;;13.36;91.59
54856;BME280;40748;53.168;5.800;2022-10-31T09:28:30;102040.64;;;13.42;91.65
54856;BME280;40748;53.168;5.800;2022-10-31T09:31:00;102039.70000000001;;;13.47;91.71
54856;BME280;40748;53.168;5.800;2022-10-31T09:33:31;102043.22;;;13.52;91.72
54856;BME280;40748;53.168;5.800;2022-10-31T09:36:00;102043.22;;;13.57;91.72
54856;BME280;40748;53.168;5.800;2022-10-31T09:38:30;102045.12;;;13.61;91.77
54856;BME280;40748;53.168;5.800;2022-10-31T09:41:01;102043.78;;;13.67;91.92
54856;BME280;40748;53.168;5.800;2022-10-31T09:43:32;102043.66;;;13.73;91.99
54856;BME280;40748;53.168;5.800;2022-10-31T09:46:01;102039.76;;;13.76;92.24
54856;BME280;40748;53.168;5.800;2022-10-31T09:48:34;102041.27;;;13.84;92.46
54856;BME280;40748;53.168;5.800;2022-10-31T09:51:01;102031.81;;;13.92;92.60
54856;BME280;40748;53.168;5.800;2022-10-31T09:53:32;102031.81;;;13.98;92.57
54856;BME280;40748;53.168;5.800;2022-10-31T09:56:00;102032.75;;;14.06;92.64
54856;BME280;40748;53.168;5.800;2022-10-31T09:58:30;102035.05;;;14.13;92.59
54856;BME280;40748;53.168;5.800;2022-10-31T10:01:00;102034.24;;;14.17;92.40
54856;BME280;40748;53.168;5.800;2022-10-31T10:03:32;102034.42;;;14.23;92.31
54856;BME280;40748;53.168;5.800;2022-10-31T10:06:02;102040.11;;;14.27;92.23
54856;BME280;40748;53.168;5.800;2022-10-31T10:08:30;102040.12;;;14.35;92.46
54856;BME280;40748;53.168;5.800;2022-10-31T10:11:03;102038.44;;;14.43;92.46
54856;BME280;40748;53.168;5.800;2022-10-31T10:13:34;102035.79;;;14.53;92.53
54856;BME280;40748;53.168;5.800;2022-10-31T10:16:04;102032.87;;;14.62;92.62
54856;BME280;40748;53.168;5.800;2022-10-31T10:18:32;102024.51999999999;;;14.74;92.76
54856;BME280;40748;53.168;5.800;2022-10-31T10:21:03;102020.72;;;14.83;92.75
54856;BME280;40748;53.168;5.800;2022-10-31T10:23:34;102019.05;;;14.97;93.00
54856;BME280;40748;53.168;5.800;2022-10-31T10:26:01;102019.34;;;15.11;92.91
54856;BME280;40748;53.168;5.800;2022-10-31T10:28:31;102024.55;;;15.26;93.12
54856;BME280;40748;53.168;5.800;2022-10-31T10:31:01;102026.58;;;15.42;93.42
54856;BME280;40748;53.168;5.800;2022-10-31T10:33:30;102027.89;;;15.54;93.16
54856;BME280;40748;53.168;5.800;2022-10-31T10:36:00;102023.91;;;15.65;93.18
54856;BME280;40748;53.168;5.800;2022-10-31T10:38:31;102022.77;;;15.76;92.86
54856;BME280;40748;53.168;5.800;2022-10-31T10:41:00;102020.18000000001;;;15.83;92.47
54856;BME280;40748;53.168;5.800;2022-10-31T10:43:31;102013.69;;;15.91;92.33
54856;BME280;40748;53.168;5.800;2022-10-31T10:46:05;102016.0;;;15.96;92.08
54856;BME280;40748;53.168;5.800;2022-10-31T10:48:32;102011.23999999999;;;16.06;91.28
54856;BME280;40748;53.168;5.800;2022-10-31T10:51:00;102011.01999999999;;;16.16;91.69
54856;BME280;40748;53.168;5.800;2022-10-31T10:53:39;102005.88;;;16.24;91.57
54856;BME280;40748;53.168;5.800;2022-10-31T10:56:02;102001.62;;;16.32;91.50
54856;BME280;40748;53.168;5.800;2022-10-31T10:58:30;101990.55;;;16.42;91.73
54856;BME280;40748;53.168;5.800;2022-10-31T11:01:00;101982.81;;;16.63;91.79
54856;BME280;40748;53.168;5.800;2022-10-31T11:03:30;101982.81;;;17.01;92.92
54856;BME280;40748;53.168;5.800;2022-10-31T11:06:01;101986.3;;;17.52;95.23
54856;BME280;40748;53.168;5.800;2022-10-31T11:08:32;101982.29;;;17.99;94.70
54856;BME280;40748;53.168;5.800;2022-10-31T11:11:01;101982.29;;;18.44;94.70
54856;BME280;40748;53.168;5.800;2022-10-31T11:13:30;101975.12000000001;;;18.96;95.29
54856;BME280;40748;53.168;5.800;2022-10-31T11:16:00;101971.22;;;19.37;94.83
54856;BME280;40748;53.168;5.800;2022-10-31T11:18:30;101967.07;;;19.71;93.82
54856;BME280;40748;53.168;5.800;2022-10-31T11:21:00;101962.53;;;20.04;93.60
54856;BME280;40748;53.168;5.800;2022-10-31T11:23:30;101959.27;;;20.14;91.98
54856;BME280;40748;53.168;5.800;2022-10-31T11:26:00;101951.33;;;20.18;90.23
54856;BME280;40748;53.168;5.800;2022-10-31T11:31:00;101940.19;;;20.25;88.06
54856;BME280;40748;53.168;5.800;2022-10-31T11:33:30;101936.87999999999;;;20.39;88.18
54856;BME280;40748;53.168;5.800;2022-10-31T11:36:00;101934.17;;;20.52;88.10
54856;BME280;40748;53.168;5.800;2022-10-31T11:38:32;101932.84;;;20.78;87.05
54856;BME280;40748;53.168;5.800;2022-10-31T11:41:02;101929.14;;;21.12;87.81
54856;BME280;40748;53.168;5.800;2022-10-31T11:43:30;101932.48;;;21.47;87.53
54856;BME280;40748;53.168;5.800;2022-10-31T11:46:07;101922.31;;;21.85;87.81
54856;BME280;40748;53.168;5.800;2022-10-31T11:48:30;101919.81;;;22.11;87.36
54856;BME280;40748;53.168;5.800;2022-10-31T11:51:00;101915.48;;;22.27;86.51
54856;BME280;40748;53.168;5.800;2022-10-31T11:53:30;101917.40999999999;;;22.36;85.11
54856;BME280;40748;53.168;5.800;2022-10-31T11:56:03;101916.63;;;22.26;83.99
54856;BME280;40748;53.168;5.800;2022-10-31T11:58:30;101908.87;;;22.09;82.30
54856;BME280;40748;53.168;5.800;2022-10-31T12:01:00;101906.02;;;21.90;81.09
54856;BME280;40748;53.168;5.800;2022-10-31T12:03:35;101897.13;;;21.74;79.71
54856;BME280;40748;53.168;5.800;2022-10-31T12:06:00;101897.13;;;21.62;79.71
54856;BME280;40748;53.168;5.800;2022-10-31T12:08:31;101899.11;;;21.51;80.09
54856;BME280;40748;53.168;5.800;2022-10-31T12:11:01;101895.65;;;21.41;79.43
54856;BME280;40748;53.168;5.800;2022-10-31T12:13:32;101890.84;;;21.31;78.95
54856;BME280;40748;53.168;5.800;2022-10-31T12:16:01;101890.37;;;21.22;79.13
54856;BME280;40748;53.168;5.800;2022-10-31T12:18:34;101879.71;;;21.15;78.47
54856;BME280;40748;53.168;5.800;2022-10-31T12:21:06;101866.04999999999;;;21.10;78.64
54856;BME280;40748;53.168;5.800;2022-10-31T12:23:32;101857.54;;;21.12;79.14
54856;BME280;40748;53.168;5.800;2022-10-31T12:26:02;101852.57;;;21.23;79.41
54856;BME280;40748;53.168;5.800;2022-10-31T12:28:36;101846.61;;;21.32;79.32
54856;BME280;40748;53.168;5.800;2022-10-31T12:31:03;101840.45999999999;;;21.46;79.62
54856;BME280;40748;53.168;5.800;2022-10-31T12:33:35;101831.5;;;21.42;79.18
54856;BME280;40748;53.168;5.800;2022-10-31T12:36:11;101828.21;;;21.29;78.41
54856;BME280;40748;53.168;5.800;2022-10-31T12:38:35;101825.42;;;21.16;77.58
54856;BME280;40748;53.168;5.800;2022-10-31T12:41:04;101822.52;;;21.03;77.01
54856;BME280;40748;53.168;5.800;2022-10-31T12:43:34;101817.94;;;20.98;77.41
54856;BME280;40748;53.168;5.800;2022-10-31T12:48:35;101814.20000000001;;;20.95;77.16
54856;BME280;40748;53.168;5.800;2022-10-31T12:51:01;101806.86;;;20.93;78.25
54856;BME280;40748;53.168;5.800;2022-10-31T12:53:33;101806.86;;;21.03;78.25
54856;BME280;40748;53.168;5.800;2022-10-31T12:56:04;101803.07;;;21.17;78.53
54856;BME280;40748;53.168;5.800;2022-10-31T12:58:31;101802.06;;;21.16;78.47
54856;BME280;40748;53.168;5.800;2022-10-31T13:01:03;101797.43999999999;;;21.19;77.42
54856;BME280;40748;53.168;5.800;2022-10-31T13:03:31;101795.25;;;21.20;77.09
54856;BME280;40748;53.168;5.800;2022-10-31T13:06:02;101789.97;;;21.36;77.12
54856;BME280;40748;53.168;5.800;2022-10-31T13:08:34;101788.48000000001;;;21.65;77.97
54856;BME280;40748;53.168;5.800;2022-10-31T13:11:02;101791.62;;;21.92;77.72
54856;BME280;40748;53.168;5.800;2022-10-31T13:13:32;101794.72;;;22.19;77.79
54856;BME280;40748;53.168;5.800;2022-10-31T13:16:00;101785.1;;;22.29;76.91
54856;BME280;40748;53.168;5.800;2022-10-31T13:18:32;101782.45;;;22.37;76.06
54856;BME280;40748;53.168;5.800;2022-10-31T13:21:01;101778.59999999999;;;22.43;75.25
54856;BME280;40748;53.168;5.800;2022-10-31T13:23:31;101765.0;;;22.63;75.98
54856;BME280;40748;53.168;5.800;2022-10-31T13:26:01;101765.0;;;22.89;75.98
54856;BME280;40748;53.168;5.800;2022-10-31T13:28:35;101762.95999999999;;;23.17;75.85
54856;BME280;40748;53.168;5.800;2022-10-31T13:31:00;101759.74;;;23.28;75.50
54856;BME280;40748;53.168;5.800;2022-10-31T13:33:31;101754.64;;;23.46;75.02
54856;BME280;40748;53.168;5.800;2022-10-31T13:36:05;101735.64;;;23.60;72.71
54856;BME280;40748;53.168;5.800;2022-10-31T13:38:32;101735.64;;;23.74;72.71
54856;BME280;40748;53.168;5.800;2022-10-31T13:41:00;101730.26999999999;;;23.90;72.50
54856;BME280;40748;53.168;5.800;2022-10-31T13:43:31;101722.63;;;24.00;71.82
54856;BME280;40748;53.168;5.800;2022-10-31T13:46:00;101723.14;;;24.05;70.58
54856;BME280;40748;53.168;5.800;2022-10-31T13:48:39;101724.64;;;24.11;71.19
54856;BME280;40748;53.168;5.800;2022-10-31T13:51:00;101727.03;;;23.96;70.43
54856;BME280;40748;53.168;5.800;2022-10-31T13:53:38;101724.40000000001;;;23.58;68.51
54856;BME280;40748;53.168;5.800;2022-10-31T13:56:02;101719.8;;;23.14;67.48
54856;BME280;40748;53.168;5.800;2022-10-31T13:58:30;101709.53;;;22.77;66.96